sensor_id;sensor_type;location;lat;lon;timestamp;temperature;humidity
11423;DHT22;5768;51.476;7.210;2023-11-19T00:02:05;11.80;99.90
11423;DHT22;5768;51.476;7.210;2023-11-19T00:07:10;11.90;99.90
11423;DHT22;5768;51.476;7.210;2023-11-19T00:12:14;12.00;99.90
11423;DHT22;5768;51.476;7.210;2023-11-19T00:17:16;12.00;99.90
11423;DHT22;5768;51.476;7.210;2023-11-19T00:22:21;12.20;99.90
11423;DHT22;5768;51.476;7.210;2023-11-19T00:27:23;12.30;99.90
11423;DHT22;5768;51.476;7.210;2023-11-19T00:32:28;12.20;99.90
11423;DHT22;5768;51.476;7.210;2023-11-19T00:37:32;12.40;99.90
11423;DHT22;5768;51.476;7.210;2023-11-19T00:42:35;12.30;99.90
11423;DHT22;5768;51.476;7.210;2023-11-19T00:47:37;12.40;99.90
11423;DHT22;5768;51.476;7.210;2023-11-19T00:52:40;12.50;99.90
11423;DHT22;5768;51.476;7.210;2023-11-19T00:57:46;12.50;99.90
11423;DHT22;5768;51.476;7.210;2023-11-19T01:02:48;12.40;99.90
11423;DHT22;5768;51.476;7.210;2023-11-19T01:07:52;12.60;99.90
11423;DHT22;5768;51.476;7.210;2023-11-19T01:12:57;12.60;99.90
11423;DHT22;5768;51.476;7.210;2023-11-19T01:18:00;12.70;99.90
11423;DHT22;5768;51.476;7.210;2023-11-19T01:23:06;12.70;99.90
11423;DHT22;5768;51.476;7.210;2023-11-19T01:28:09;12.70;99.90
11423;DHT22;5768;51.476;7.210;2023-11-19T01:33:11;12.80;99.90
11423;DHT22;5768;51.476;7.210;2023-11-19T01:38:14;12.80;99.90
11423;DHT22;5768;51.476;7.210;2023-11-19T01:43:32;12.80;99.90
11423;DHT22;5768;51.476;7.210;2023-11-19T01:48:35;12.80;99.90
11423;DHT22;5768;51.476;7.210;2023-11-19T01:53:43;12.70;99.90
11423;DHT22;5768;51.476;7.210;2023-11-19T01:58:46;12.70;99.90
11423;DHT22;5768;51.476;7.210;2023-11-19T02:03:54;12.80;99.90
11423;DHT22;5768;51.476;7.210;2023-11-19T02:09:00;12.80;99.90
11423;DHT22;5768;51.476;7.210;2023-11-19T02:14:02;12.80;99.90
11423;DHT22;5768;51.476;7.210;2023-11-19T02:19:05;12.90;99.90
11423;DHT22;5768;51.476;7.210;2023-11-19T02:24:11;12.90;99.90
11423;DHT22;5768;51.476;7.210;2023-11-19T02:29:20;12.90;99.90
11423;DHT22;5768;51.476;7.210;2023-11-19T02:34:22;12.90;99.90
11423;DHT22;5768;51.476;7.210;2023-11-19T02:39:24;12.90;99.90
11423;DHT22;5768;51.476;7.210;2023-11-19T02:44:28;12.90;99.90
11423;DHT22;5768;51.476;7.210;2023-11-19T02:49:31;12.90;99.90
11423;DHT22;5768;51.476;7.210;2023-11-19T02:54:33;13.00;99.90
11423;DHT22;5768;51.476;7.210;2023-11-19T02:59:38;13.00;99.90
11423;DHT22;5768;51.476;7.210;2023-11-19T03:04:43;13.10;99.90
11423;DHT22;5768;51.476;7.210;2023-11-19T03:09:46;13.10;99.90
11423;DHT22;5768;51.476;7.210;2023-11-19T03:14:51;13.10;99.90
11423;DHT22;5768;51.476;7.210;2023-11-19T03:19:53;13.10;99.90
11423;DHT22;5768;51.476;7.210;2023-11-19T03:24:55;13.10;99.90
11423;DHT22;5768;51.476;7.210;2023-11-19T03:29:59;13.00;99.90
11423;DHT22;5768;51.476;7.210;2023-11-19T03:35:02;13.00;99.90
11423;DHT22;5768;51.476;7.210;2023-11-19T03:40:06;13.00;99.90
11423;DHT22;5768;51.476;7.210;2023-11-19T03:45:10;12.90;99.90
11423;DHT22;5768;51.476;7.210;2023-11-19T03:50:12;12.90;99.90
11423;DHT22;5768;51.476;7.210;2023-11-19T03:55:16;12.70;99.90
11423;DHT22;5768;51.476;7.210;2023-11-19T04:00:20;12.70;99.90
11423;DHT22;5768;51.476;7.210;2023-11-19T04:05:22;12.70;99.90
11423;DHT22;5768;51.476;7.210;2023-11-19T04:10:25;12.60;99.90
11423;DHT22;5768;51.476;7.210;2023-11-19T04:15:29;12.60;99.90
11423;DHT22;5768;51.476;7.210;2023-11-19T04:20:31;12.50;99.90
11423;DHT22;5768;51.476;7.210;2023-11-19T04:25:35;12.50;99.90
11423;DHT22;5768;51.476;7.210;2023-11-19T04:30:38;12.50;99.90
11423;DHT22;5768;51.476;7.210;2023-11-19T04:35:41;12.50;99.90
11423;DHT22;5768;51.476;7.210;2023-11-19T04:40:43;12.50;99.90
11423;DHT22;5768;51.476;7.210;2023-11-19T04:45:47;12.50;99.90
11423;DHT22;5768;51.476;7.210;2023-11-19T04:50:49;12.50;99.90
11423;DHT22;5768;51.476;7.210;2023-11-19T04:55:53;12.50;99.90
11423;DHT22;5768;51.476;7.210;2023-11-19T05:00:56;12.50;99.90
11423;DHT22;5768;51.476;7.210;2023-11-19T05:05:59;12.60;99.90
11423;DHT22;5768;51.476;7.210;2023-11-19T05:11:01;12.80;99.90
11423;DHT22;5768;51.476;7.210;2023-11-19T05:16:06;12.80;99.90
11423;DHT22;5768;51.476;7.210;2023-11-19T05:21:10;12.80;99.90
11423;DHT22;5768;51.476;7.210;2023-11-19T05:26:18;12.90;99.90
11423;DHT22;5768;51.476;7.210;2023-11-19T05:31:22;12.80;99.90
11423;DHT22;5768;51.476;7.210;2023-11-19T05:36:24;12.80;99.90
11423;DHT22;5768;51.476;7.210;2023-11-19T05:41:26;12.80;99.90
11423;DHT22;5768;51.476;7.210;2023-11-19T05:46:30;13.00;99.90
11423;DHT22;5768;51.476;7.210;2023-11-19T05:51:36;13.00;99.90
11423;DHT22;5768;51.476;7.210;2023-11-19T05:56:39;13.20;99.90
11423;DHT22;5768;51.476;7.210;2023-11-19T06:01:43;13.00;99.90
11423;DHT22;5768;51.476;7.210;2023-11-19T06:06:47;12.90;99.90
11423;DHT22;5768;51.476;7.210;2023-11-19T06:11:49;12.70;99.90
11423;DHT22;5768;51.476;7.210;2023-11-19T06:16:53;12.70;99.90
11423;DHT22;5768;51.476;7.210;2023-11-19T06:21:55;12.70;99.90
11423;DHT22;5768;51.476;7.210;2023-11-19T06:26:57;12.80;99.90
11423;DHT22;5768;51.476;7.210;2023-11-19T06:32:01;12.70;99.90
11423;DHT22;5768;51.476;7.210;2023-11-19T06:37:03;12.60;99.90
11423;DHT22;5768;51.476;7.210;2023-11-19T06:42:05;12.70;99.90
11423;DHT22;5768;51.476;7.210;2023-11-19T06:47:09;12.60;99.90
11423;DHT22;5768;51.476;7.210;2023-11-19T06:52:11;12.40;99.90
11423;DHT22;5768;51.476;7.210;2023-11-19T06:57:14;12.50;99.90
11423;DHT22;5768;51.476;7.210;2023-11-19T07:02:17;12.50;99.90
11423;DHT22;5768;51.476;7.210;2023-11-19T07:07:19;12.40;99.90
11423;DHT22;5768;51.476;7.210;2023-11-19T07:12:22;12.50;99.90
11423;DHT22;5768;51.476;7.210;2023-11-19T07:17:26;12.50;99.90
11423;DHT22;5768;51.476;7.210;2023-11-19T07:22:28;12.40;99.90
11423;DHT22;5768;51.476;7.210;2023-11-19T07:27:31;12.50;99.90
11423;DHT22;5768;51.476;7.210;2023-11-19T07:32:34;12.30;99.90
11423;DHT22;5768;51.476;7.210;2023-11-19T07:37:39;12.30;99.90
11423;DHT22;5768;51.476;7.210;2023-11-19T07:42:41;12.30;99.90
11423;DHT22;5768;51.476;7.210;2023-11-19T07:47:47;12.40;99.90
11423;DHT22;5768;51.476;7.210;2023-11-19T07:52:49;12.40;99.90
11423;DHT22;5768;51.476;7.210;2023-11-19T07:57:51;12.30;99.90
11423;DHT22;5768;51.476;7.210;2023-11-19T08:02:55;12.40;99.90
11423;DHT22;5768;51.476;7.210;2023-11-19T08:08:00;12.30;99.90
11423;DHT22;5768;51.476;7.210;2023-11-19T08:13:02;12.30;99.90
11423;DHT22;5768;51.476;7.210;2023-11-19T08:18:06;12.40;99.90
11423;DHT22;5768;51.476;7.210;2023-11-19T08:23:09;12.40;99.90
11423;DHT22;5768;51.476;7.210;2023-11-19T08:28:12;12.50;99.90
11423;DHT22;5768;51.476;7.210;2023-11-19T08:33:16;12.50;99.90
11423;DHT22;5768;51.476;7.210;2023-11-19T08:38:18;12.60;99.90
11423;DHT22;5768;51.476;7.210;2023-11-19T08:43:20;12.80;99.90
11423;DHT22;5768;51.476;7.210;2023-11-19T08:48:26;12.80;99.90
11423;DHT22;5768;51.476;7.210;2023-11-19T08:53:28;12.90;99.90
11423;DHT22;5768;51.476;7.210;2023-11-19T08:58:30;12.80;99.90
11423;DHT22;5768;51.476;7.210;2023-11-19T09:03:34;12.70;99.90
11423;DHT22;5768;51.476;7.210;2023-11-19T09:08:37;12.90;99.90
11423;DHT22;5768;51.476;7.210;2023-11-19T09:13:39;13.00;99.90
11423;DHT22;5768;51.476;7.210;2023-11-19T09:18:43;12.70;99.90
11423;DHT22;5768;51.476;7.210;2023-11-19T09:23:45;12.80;99.90
11423;DHT22;5768;51.476;7.210;2023-11-19T09:28:47;13.10;99.90
11423;DHT22;5768;51.476;7.210;2023-11-19T09:33:51;13.00;99.90
11423;DHT22;5768;51.476;7.210;2023-11-19T09:38:54;13.20;99.90
11423;DHT22;5768;51.476;7.210;2023-11-19T09:43:58;13.40;99.90
11423;DHT22;5768;51.476;7.210;2023-11-19T09:49:04;13.30;99.90
11423;DHT22;5768;51.476;7.210;2023-11-19T09:54:09;13.50;99.90
11423;DHT22;5768;51.476;7.210;2023-11-19T09:59:13;13.60;97.30
11423;DHT22;5768;51.476;7.210;2023-11-19T10:04:17;14.00;93.10
11423;DHT22;5768;51.476;7.210;2023-11-19T10:09:22;13.60;96.10
11423;DHT22;5768;51.476;7.210;2023-11-19T10:14:24;13.90;93.40
11423;DHT22;5768;51.476;7.210;2023-11-19T10:19:28;14.00;87.50
11423;DHT22;5768;51.476;7.210;2023-11-19T10:24:31;13.90;90.40
11423;DHT22;5768;51.476;7.210;2023-11-19T10:29:36;13.90;90.30
11423;DHT22;5768;51.476;7.210;2023-11-19T10:34:40;13.80;89.10
11423;DHT22;5768;51.476;7.210;2023-11-19T10:39:53;13.60;89.00
11423;DHT22;5768;51.476;7.210;2023-11-19T10:44:56;13.70;90.20
11423;DHT22;5768;51.476;7.210;2023-11-19T10:50:00;13.80;84.20
11423;DHT22;5768;51.476;7.210;2023-11-19T10:55:05;13.70;87.90
11423;DHT22;5768;51.476;7.210;2023-11-19T11:00:17;13.80;86.20
11423;DHT22;5768;51.476;7.210;2023-11-19T11:05:26;14.10;35.10
11423;DHT22;5768;51.476;7.210;2023-11-19T11:10:39;14.00;84.50
11423;DHT22;5768;51.476;7.210;2023-11-19T11:15:47;14.10;31.40
11423;DHT22;5768;51.476;7.210;2023-11-19T11:20:57;13.90;32.20
11423;DHT22;5768;51.476;7.210;2023-11-19T11:26:31;14.00;87.50
11423;DHT22;5768;51.476;7.210;2023-11-19T11:32:05;14.00;30.90
11423;DHT22;5768;51.476;7.210;2023-11-19T11:37:27;13.80;81.80
11423;DHT22;5768;51.476;7.210;2023-11-19T11:42:35;14.00;33.80
11423;DHT22;5768;51.476;7.210;2023-11-19T11:48:04;14.30;28.20
11423;DHT22;5768;51.476;7.210;2023-11-19T11:53:16;14.50;26.40
11423;DHT22;5768;51.476;7.210;2023-11-19T11:58:20;14.90;25.70
11423;DHT22;5768;51.476;7.210;2023-11-19T12:03:23;14.50;25.00
11423;DHT22;5768;51.476;7.210;2023-11-19T12:08:28;14.30;23.80
11423;DHT22;5768;51.476;7.210;2023-11-19T12:13:53;14.50;23.90
11423;DHT22;5768;51.476;7.210;2023-11-19T12:19:03;14.60;22.50
11423;DHT22;5768;51.476;7.210;2023-11-19T12:24:09;14.80;20.60
11423;DHT22;5768;51.476;7.210;2023-11-19T12:29:12;14.40;20.00
11423;DHT22;5768;51.476;7.210;2023-11-19T12:34:15;14.30;20.00
11423;DHT22;5768;51.476;7.210;2023-11-19T12:39:18;14.40;20.00
11423;DHT22;5768;51.476;7.210;2023-11-19T12:44:22;14.40;19.80
11423;DHT22;5768;51.476;7.210;2023-11-19T12:49:25;14.40;19.50
11423;DHT22;5768;51.476;7.210;2023-11-19T12:54:36;14.40;19.60
11423;DHT22;5768;51.476;7.210;2023-11-19T12:59:38;14.20;19.70
11423;DHT22;5768;51.476;7.210;2023-11-19T13:04:43;14.00;20.60
11423;DHT22;5768;51.476;7.210;2023-11-19T13:09:48;12.60;99.90
11423;DHT22;5768;51.476;7.210;2023-11-19T13:14:50;12.40;99.90
11423;DHT22;5768;51.476;7.210;2023-11-19T13:19:54;12.50;99.90
11423;DHT22;5768;51.476;7.210;2023-11-19T13:24:59;12.70;99.90
11423;DHT22;5768;51.476;7.210;2023-11-19T13:30:04;12.70;99.90
11423;DHT22;5768;51.476;7.210;2023-11-19T13:35:09;13.20;96.90
11423;DHT22;5768;51.476;7.210;2023-11-19T13:40:12;13.80;88.00
11423;DHT22;5768;51.476;7.210;2023-11-19T13:45:16;13.90;87.00
11423;DHT22;5768;51.476;7.210;2023-11-19T13:50:19;14.40;39.00
11423;DHT22;5768;51.476;7.210;2023-11-19T13:55:25;14.10;81.80
11423;DHT22;5768;51.476;7.210;2023-11-19T14:00:28;14.10;84.20
11423;DHT22;5768;51.476;7.210;2023-11-19T14:05:30;14.50;34.20
11423;DHT22;5768;51.476;7.210;2023-11-19T14:10:34;14.00;84.00
11423;DHT22;5768;51.476;7.210;2023-11-19T14:15:36;13.60;90.70
11423;DHT22;5768;51.476;7.210;2023-11-19T14:20:39;13.60;90.10
11423;DHT22;5768;51.476;7.210;2023-11-19T14:25:43;13.30;92.90
11423;DHT22;5768;51.476;7.210;2023-11-19T14:30:45;13.30;91.90
11423;DHT22;5768;51.476;7.210;2023-11-19T14:35:54;13.30;92.20
11423;DHT22;5768;51.476;7.210;2023-11-19T14:40:58;13.10;99.90
11423;DHT22;5768;51.476;7.210;2023-11-19T14:46:01;12.90;99.90
11423;DHT22;5768;51.476;7.210;2023-11-19T14:51:04;12.70;99.90
11423;DHT22;5768;51.476;7.210;2023-11-19T14:56:11;12.70;99.90
11423;DHT22;5768;51.476;7.210;2023-11-19T15:01:14;12.60;99.90
11423;DHT22;5768;51.476;7.210;2023-11-19T15:06:17;12.90;99.90
11423;DHT22;5768;51.476;7.210;2023-11-19T15:11:21;12.90;99.90
11423;DHT22;5768;51.476;7.210;2023-11-19T15:16:27;12.70;99.90
11423;DHT22;5768;51.476;7.210;2023-11-19T15:21:33;12.70;99.90
11423;DHT22;5768;51.476;7.210;2023-11-19T15:26:37;12.40;99.90
11423;DHT22;5768;51.476;7.210;2023-11-19T15:31:39;12.20;99.90
11423;DHT22;5768;51.476;7.210;2023-11-19T15:36:42;12.30;99.90
11423;DHT22;5768;51.476;7.210;2023-11-19T15:41:45;12.10;99.90
11423;DHT22;5768;51.476;7.210;2023-11-19T15:46:48;11.90;99.90
11423;DHT22;5768;51.476;7.210;2023-11-19T15:51:51;11.80;99.90
11423;DHT22;5768;51.476;7.210;2023-11-19T15:56:56;11.70;99.90
11423;DHT22;5768;51.476;7.210;2023-11-19T16:02:02;11.50;99.90
11423;DHT22;5768;51.476;7.210;2023-11-19T16:07:04;11.60;99.90
11423;DHT22;5768;51.476;7.210;2023-11-19T16:12:09;11.60;99.90
11423;DHT22;5768;51.476;7.210;2023-11-19T16:17:11;11.70;99.90
11423;DHT22;5768;51.476;7.210;2023-11-19T16:22:13;11.70;99.90
11423;DHT22;5768;51.476;7.210;2023-11-19T16:27:17;11.50;99.90
11423;DHT22;5768;51.476;7.210;2023-11-19T16:32:19;11.50;99.90
11423;DHT22;5768;51.476;7.210;2023-11-19T16:37:22;11.60;99.90
11423;DHT22;5768;51.476;7.210;2023-11-19T16:42:26;11.50;99.90
11423;DHT22;5768;51.476;7.210;2023-11-19T16:47:29;11.40;99.90
11423;DHT22;5768;51.476;7.210;2023-11-19T16:52:31;11.40;99.90
11423;DHT22;5768;51.476;7.210;2023-11-19T16:57:35;11.50;99.90
11423;DHT22;5768;51.476;7.210;2023-11-19T17:02:39;11.30;99.90
11423;DHT22;5768;51.476;7.210;2023-11-19T17:07:44;11.30;99.90
11423;DHT22;5768;51.476;7.210;2023-11-19T17:12:48;11.20;99.90
11423;DHT22;5768;51.476;7.210;2023-11-19T17:17:51;11.30;99.90
11423;DHT22;5768;51.476;7.210;2023-11-19T17:22:53;11.20;99.90
11423;DHT22;5768;51.476;7.210;2023-11-19T17:28:01;11.10;99.90
11423;DHT22;5768;51.476;7.210;2023-11-19T17:33:05;11.20;99.90
11423;DHT22;5768;51.476;7.210;2023-11-19T17:38:08;11.30;99.90
11423;DHT22;5768;51.476;7.210;2023-11-19T17:43:11;11.30;99.90
11423;DHT22;5768;51.476;7.210;2023-11-19T17:48:15;11.40;99.90
11423;DHT22;5768;51.476;7.210;2023-11-19T17:53:18;11.40;99.90
11423;DHT22;5768;51.476;7.210;2023-11-19T17:58:22;11.40;99.90
11423;DHT22;5768;51.476;7.210;2023-11-19T18:03:24;11.40;99.90
11423;DHT22;5768;51.476;7.210;2023-11-19T18:08:27;11.20;99.90
11423;DHT22;5768;51.476;7.210;2023-11-19T18:13:30;11.00;99.90
11423;DHT22;5768;51.476;7.210;2023-11-19T18:18:34;11.00;99.90
11423;DHT22;5768;51.476;7.210;2023-11-19T18:23:37;11.10;99.90
11423;DHT22;5768;51.476;7.210;2023-11-19T18:28:41;11.10;99.90
11423;DHT22;5768;51.476;7.210;2023-11-19T18:33:43;11.10;99.90
11423;DHT22;5768;51.476;7.210;2023-11-19T18:38:45;11.10;99.90
11423;DHT22;5768;51.476;7.210;2023-11-19T18:43:49;10.90;99.90
11423;DHT22;5768;51.476;7.210;2023-11-19T18:48:51;11.00;99.90
11423;DHT22;5768;51.476;7.210;2023-11-19T18:53:54;10.90;99.90
11423;DHT22;5768;51.476;7.210;2023-11-19T18:59:02;11.00;99.90
11423;DHT22;5768;51.476;7.210;2023-11-19T19:04:08;11.00;99.90
11423;DHT22;5768;51.476;7.210;2023-11-19T19:09:10;10.90;99.90
11423;DHT22;5768;51.476;7.210;2023-11-19T19:14:15;10.90;99.90
11423;DHT22;5768;51.476;7.210;2023-11-19T19:19:18;10.90;99.90
11423;DHT22;5768;51.476;7.210;2023-11-19T19:24:20;10.80;99.90
11423;DHT22;5768;51.476;7.210;2023-11-19T19:29:24;10.80;99.90
11423;DHT22;5768;51.476;7.210;2023-11-19T19:34:32;10.90;99.90
11423;DHT22;5768;51.476;7.210;2023-11-19T19:39:39;10.80;99.90
11423;DHT22;5768;51.476;7.210;2023-11-19T19:44:45;10.80;99.90
11423;DHT22;5768;51.476;7.210;2023-11-19T19:49:48;10.80;99.90
11423;DHT22;5768;51.476;7.210;2023-11-19T19:54:51;10.90;99.90
11423;DHT22;5768;51.476;7.210;2023-11-19T19:59:56;10.90;99.90
11423;DHT22;5768;51.476;7.210;2023-11-19T20:04:59;10.90;99.90
11423;DHT22;5768;51.476;7.210;2023-11-19T20:10:02;10.80;99.90
11423;DHT22;5768;51.476;7.210;2023-11-19T20:15:08;10.80;99.90
11423;DHT22;5768;51.476;7.210;2023-11-19T20:20:12;10.90;99.90
11423;DHT22;5768;51.476;7.210;2023-11-19T20:25:15;10.70;99.90
11423;DHT22;5768;51.476;7.210;2023-11-19T20:30:22;10.90;99.90
11423;DHT22;5768;51.476;7.210;2023-11-19T20:35:25;10.60;99.90
11423;DHT22;5768;51.476;7.210;2023-11-19T20:40:27;10.60;99.90
11423;DHT22;5768;51.476;7.210;2023-11-19T20:45:31;10.60;99.90
11423;DHT22;5768;51.476;7.210;2023-11-19T20:50:34;10.70;99.90
11423;DHT22;5768;51.476;7.210;2023-11-19T20:55:37;10.50;99.90
11423;DHT22;5768;51.476;7.210;2023-11-19T21:00:41;10.60;99.90
11423;DHT22;5768;51.476;7.210;2023-11-19T21:05:44;10.70;99.90
11423;DHT22;5768;51.476;7.210;2023-11-19T21:10:54;10.60;99.90
11423;DHT22;5768;51.476;7.210;2023-11-19T21:16:03;10.50;99.90
11423;DHT22;5768;51.476;7.210;2023-11-19T21:21:10;10.60;99.90
11423;DHT22;5768;51.476;7.210;2023-11-19T21:26:13;10.60;99.90
11423;DHT22;5768;51.476;7.210;2023-11-19T21:31:16;10.60;99.90
11423;DHT22;5768;51.476;7.210;2023-11-19T21:36:19;10.70;99.90
11423;DHT22;5768;51.476;7.210;2023-11-19T21:41:22;10.70;99.90
11423;DHT22;5768;51.476;7.210;2023-11-19T21:46:27;10.90;99.90
11423;DHT22;5768;51.476;7.210;2023-11-19T21:51:29;10.90;99.90
11423;DHT22;5768;51.476;7.210;2023-11-19T21:56:34;10.90;99.90
11423;DHT22;5768;51.476;7.210;2023-11-19T22:01:38;11.00;99.90
11423;DHT22;5768;51.476;7.210;2023-11-19T22:06:40;10.90;99.90
11423;DHT22;5768;51.476;7.210;2023-11-19T22:11:43;10.90;99.90
11423;DHT22;5768;51.476;7.210;2023-11-19T22:16:49;10.90;99.90
11423;DHT22;5768;51.476;7.210;2023-11-19T22:21:54;10.80;99.90
11423;DHT22;5768;51.476;7.210;2023-11-19T22:26:56;10.90;99.90
11423;DHT22;5768;51.476;7.210;2023-11-19T22:32:00;10.90;99.90
11423;DHT22;5768;51.476;7.210;2023-11-19T22:37:02;11.00;99.90
11423;DHT22;5768;51.476;7.210;2023-11-19T22:42:05;10.70;99.90
11423;DHT22;5768;51.476;7.210;2023-11-19T22:47:11;11.00;99.90
11423;DHT22;5768;51.476;7.210;2023-11-19T22:52:13;11.30;99.90
11423;DHT22;5768;51.476;7.210;2023-11-19T22:57:15;11.10;99.90
11423;DHT22;5768;51.476;7.210;2023-11-19T23:02:20;11.00;99.90
11423;DHT22;5768;51.476;7.210;2023-11-19T23:07:23;11.10;99.90
11423;DHT22;5768;51.476;7.210;2023-11-19T23:12:26;11.10;99.90
11423;DHT22;5768;51.476;7.210;2023-11-19T23:17:29;11.00;99.90
11423;DHT22;5768;51.476;7.210;2023-11-19T23:22:35;11.20;99.90
11423;DHT22;5768;51.476;7.210;2023-11-19T23:27:38;11.20;99.90
11423;DHT22;5768;51.476;7.210;2023-11-19T23:32:46;11.30;99.90
11423;DHT22;5768;51.476;7.210;2023-11-19T23:37:48;11.10;99.90
11423;DHT22;5768;51.476;7.210;2023-11-19T23:42:51;11.10;99.90
11423;DHT22;5768;51.476;7.210;2023-11-19T23:47:55;11.10;99.90
11423;DHT22;5768;51.476;7.210;2023-11-19T23:52:58;11.20;99.90
11423;DHT22;5768;51.476;7.210;2023-11-19T23:58:00;11.20;99.90
